PROFILE

 METAR AND TAF INFORMATION
ADDS - METARS form results

(1316 UTC 26 September 2021)
http://aviationweather.gov/metar/data/
 
GOBD 261300Z 10019KT 9999 BKN014 FEW030CB 31/22 Q1014 TEMPO 4000 TSRA
GOBD 261230Z 09012KT 9999 BKN014 FEW030CB 33/23 Q1015 TEMPO 4000 TSRA
TAF GOBD 261100Z 2612/2718 06010KT 8000 SCT013 PROB30 TEMPO 2615/2621 4000 TSRA BKN010 FEW025CB BECMG 2621/2623 33008KT PROB40 2704/2708 4000 BR 

 AIRPORT MAP

 RUNWAY INFORMATION
Runway 01 Runway length 11483 ft Runway width 197 ft
Runway elevation 272 ft Runway displaced threshold 0 ft Runway heading 7
Runway 19 Runway length 11483 ft Runway width 197 ft
Runway elevation 251 ft Runway displaced threshold 0 ft Runway heading 187

 AIRPORT FREQUENCIES
Type GND Name Dakar GND Frequency 121.8 MHZ
Type A/D Name Dakar TWR Frequency 118.8 MHZ
Type ATIS Name Dakar ATIS Frequency 126.6 MHZ
Type APP Name Dakar APP Frequency 120.5 MHZ

 AIRPORT NEAR NAVIGATION AIDS